Time;durP1;ratioP1;P1;durP2;ratioP2;P2;SDS_P1;SDS_P2;PMS_P1;PMS_P2;Temp;Humidity;BMP_temperature;BMP_pressure;BME280_temperature;BME280_humidity;BME280_pressure;Samples;Min_cycle;Max_cycle;Signal;HPM_P1;HPM_P2
2022/10/09 00:01:30;;;;;;;2.20;1.50;;;21.30;56.90;;;;;;6294215;22;20372;-93
2022/10/09 00:04:09;;;;;;;;;;;;;;;;;;;;;
2022/10/09 00:06:38;;;;;;;3.13;1.50;;;21.30;56.90;;;;;;6297601;22;20356;-93
2022/10/09 00:09:11;;;;;;;2.00;1.70;;;21.30;56.90;;;;;;6296305;22;20608;-93
2022/10/09 00:11:42;;;;;;;1.67;1.33;;;21.30;57.00;;;;;;6292766;22;20376;-93
2022/10/09 00:14:19;;;;;;;;;;;;;;;;;;;;;
2022/10/09 00:16:45;;;;;;;3.00;1.63;;;21.30;56.90;;;;;;6293857;22;20432;-93
2022/10/09 00:19:11;;;;;;;2.77;2.00;;;21.30;56.90;;;;;;6294051;22;20428;-93
2022/10/09 00:21:40;;;;;;;5.33;1.90;;;21.30;56.90;;;;;;6294699;22;20142;-93
2022/10/09 00:24:11;;;;;;;2.80;1.40;;;21.30;56.90;;;;;;6293218;22;20508;-93
2022/10/09 00:26:36;;;;;;;2.90;1.70;;;21.30;57.40;;;;;;6294601;22;20349;-93
2022/10/09 00:29:05;;;;;;;2.63;1.60;;;21.30;56.90;;;;;;6294626;22;20459;-93
2022/10/09 00:31:49;;;;;;;1.67;1.40;;;21.30;56.80;;;;;;6293625;22;20392;-93
2022/10/09 00:34:21;;;;;;;4.00;1.60;;;21.30;56.80;;;;;;6294834;22;20443;-93
2022/10/09 00:36:49;;;;;;;2.00;1.50;;;21.30;56.80;;;;;;6292611;22;20493;-93
2022/10/09 00:39:31;;;;;;;1.83;1.50;;;21.30;56.80;;;;;;6292839;22;20426;-93
2022/10/09 00:42:03;;;;;;;2.37;1.90;;;21.30;56.90;;;;;;6294234;22;20353;-93
2022/10/09 00:44:58;;;;;;;2.07;1.70;;;21.30;56.80;;;;;;6293135;22;20404;-93
2022/10/09 00:47:57;;;;;;;1.83;1.40;;;21.30;56.80;;;;;;6292649;22;20646;-93
2022/10/09 00:50:33;;;;;;;3.47;1.60;;;21.30;56.80;;;;;;6246952;22;20437;-93
2022/10/09 00:53:04;;;;;;;1.97;1.80;;;21.30;56.80;;;;;;6292577;22;20683;-93
2022/10/09 00:55:45;;;;;;;2.63;1.50;;;21.30;56.80;;;;;;6293766;22;20367;-94
2022/10/09 00:58:16;;;;;;;1.80;1.63;;;21.30;56.90;;;;;;6293838;22;20443;-94
2022/10/09 01:00:45;;;;;;;1.53;1.43;;;21.30;56.90;;;;;;6294893;22;20415;-93
2022/10/09 01:03:29;;;;;;;;;;;;;;;;;;;;;
2022/10/09 01:06:31;;;;;;;;;;;;;;;;;;;;;
2022/10/09 01:09:35;;;;;;;3.20;1.60;;;21.30;56.80;;;;;;6297326;22;20363;-93
2022/10/09 01:12:58;;;;;;;;;;;;;;;;;;;;;
2022/10/09 01:15:50;;;;;;;1.60;1.47;;;21.30;56.90;;;;;;6084607;23;20382;-93
2022/10/09 01:18:37;;;;;;;2.10;1.50;;;21.30;56.90;;;;;;6051658;23;20402;-93
2022/10/09 01:21:07;;;;;;;2.47;1.50;;;21.30;56.90;;;;;;6083436;23;20370;-93
2022/10/09 01:24:00;;;;;;;;;;;;;;;;;;;;;
2022/10/09 01:27:03;;;;;;;1.70;1.60;;;21.30;56.90;;;;;;6083399;23;20390;-93
2022/10/09 01:30:00;;;;;;;2.13;1.33;;;21.30;56.90;;;;;;6083431;23;20403;-92
2022/10/09 01:33:08;;;;;;;1.97;1.70;;;21.30;56.90;;;;;;6050178;23;20399;-93
2022/10/09 01:35:37;;;;;;;2.77;1.57;;;21.30;56.90;;;;;;6059022;23;20406;-92
2022/10/09 01:38:17;;;;;;;1.80;1.50;;;21.30;57.50;;;;;;6082927;23;20450;-92
2022/10/09 01:40:44;;;;;;;2.30;1.80;;;21.30;56.90;;;;;;6107799;22;20539;-92
2022/10/09 01:43:32;;;;;;;2.00;1.53;;;21.30;56.80;;;;;;6292318;22;20797;-91
2022/10/09 01:46:22;;;;;;;1.40;1.30;;;21.30;56.80;;;;;;6292511;22;20379;-91
2022/10/09 01:49:13;;;;;;;2.00;1.57;;;21.30;56.80;;;;;;6291990;22;20372;-92
2022/10/09 01:51:51;;;;;;;2.20;1.23;;;21.30;56.80;;;;;;6291971;22;20408;-93
2022/10/09 01:54:34;;;;;;;2.53;1.90;;;21.30;56.80;;;;;;6293464;22;20359;-92
2022/10/09 01:57:07;;;;;;;1.50;1.20;;;21.30;56.80;;;;;;6293206;22;20674;-92
2022/10/09 01:59:46;;;;;;;1.73;1.37;;;21.30;56.80;;;;;;6293400;22;20368;-92
2022/10/09 02:02:18;;;;;;;2.30;2.00;;;21.30;56.80;;;;;;6294778;22;20348;-92
2022/10/09 02:04:57;;;;;;;1.30;1.20;;;21.30;56.80;;;;;;6296486;22;20619;-92
2022/10/09 02:07:24;;;;;;;1.60;1.50;;;21.30;56.80;;;;;;6293630;22;20375;-92
2022/10/09 02:09:50;;;;;;;2.40;1.60;;;21.30;56.80;;;;;;6294584;22;20437;-92
2022/10/09 02:12:17;;;;;;;1.63;1.53;;;21.30;56.80;;;;;;6295503;22;20445;-92
2022/10/09 02:14:46;;;;;;;2.63;1.50;;;21.30;56.80;;;;;;6293428;22;20389;-92
2022/10/09 02:17:17;;;;;;;2.03;1.80;;;21.30;56.70;;;;;;6293373;22;20491;-92
2022/10/09 02:26:22;;;;;;;2.17;1.30;;;21.30;56.70;;;;;;6293479;22;20390;-92
2022/10/09 02:28:51;;;;;;;1.67;1.50;;;21.20;56.60;;;;;;6292190;22;20380;-92
2022/10/09 02:31:39;;;;;;;1.40;1.30;;;21.30;56.70;;;;;;6291383;22;20450;-92
2022/10/09 02:34:07;;;;;;;1.50;1.40;;;21.30;56.70;;;;;;6268791;22;20403;-92
2022/10/09 02:36:41;;;;;;;1.67;1.40;;;21.20;56.70;;;;;;6292885;22;20455;-92
2022/10/09 02:39:18;;;;;;;1.47;1.23;;;21.20;56.60;;;;;;6291890;22;20811;-93
2022/10/09 02:41:49;;;;;;;1.60;1.40;;;21.30;56.70;;;;;;6292754;22;20604;-92
2022/10/09 02:44:27;;;;;;;;;;;;;;;;;;;;;
2022/10/09 02:46:59;;;;;;;1.40;1.30;;;21.30;56.80;;;;;;6293920;22;20622;-93
2022/10/09 02:50:00;;;;;;;;;;;;;;;;;;;;;
2022/10/09 02:52:43;;;;;;;1.40;1.30;;;21.20;56.60;;;;;;6293567;22;20376;-92
2022/10/09 02:55:11;;;;;;;2.00;1.60;;;21.20;56.70;;;;;;6293829;22;20380;-92
2022/10/09 02:57:40;;;;;;;1.60;1.30;;;21.20;56.70;;;;;;6291351;22;20497;-92
2022/10/09 03:00:12;;;;;;;1.70;1.50;;;21.20;56.70;;;;;;6292421;22;20369;-92
2022/10/09 03:03:03;;;;;;;1.77;1.40;;;21.20;56.70;;;;;;6293602;22;20412;-92
2022/10/09 03:05:47;;;;;;;1.77;1.57;;;21.20;56.70;;;;;;6295374;22;20376;-92
2022/10/09 03:09:10;;;;;;;2.00;1.37;;;21.20;56.70;;;;;;6294838;22;20372;-92
2022/10/09 03:15:08;;;;;;;3.10;1.47;;;21.20;56.80;;;;;;6295555;22;20348;-93
2022/10/09 03:17:39;;;;;;;2.30;1.47;;;21.20;56.80;;;;;;6293536;22;20810;-93
2022/10/09 03:20:08;;;;;;;1.87;1.57;;;21.20;56.80;;;;;;6293605;22;20380;-93
2022/10/09 03:22:41;;;;;;;1.80;1.50;;;21.20;56.70;;;;;;6294029;22;20775;-93
2022/10/09 03:25:13;;;;;;;1.50;1.40;;;21.20;56.70;;;;;;6293372;22;20341;-93
2022/10/09 03:27:50;;;;;;;1.47;1.30;;;21.20;56.80;;;;;;6295014;22;20346;-93
2022/10/09 03:30:53;;;;;;;;;;;;;;;;;;;;;
2022/10/09 03:33:32;;;;;;;3.00;1.90;;;21.20;56.70;;;;;;6295361;22;20507;-92
2022/10/09 03:36:55;;;;;;;1.67;1.30;;;21.20;56.70;;;;;;6293572;22;20372;-92
2022/10/09 03:39:33;;;;;;;1.83;1.73;;;21.20;56.70;;;;;;6293916;22;20368;-93
2022/10/09 03:42:14;;;;;;;1.97;1.50;;;21.20;56.70;;;;;;6294713;22;20349;-93
2022/10/09 03:44:45;;;;;;;1.87;1.27;;;21.20;56.70;;;;;;6293435;22;20368;-93
2022/10/09 03:47:29;;;;;;;;;;;;;;;;;;;;;
2022/10/09 03:49:58;;;;;;;1.40;1.30;;;21.20;56.70;;;;;;6295045;22;20368;-92
2022/10/09 03:52:35;;;;;;;1.50;1.40;;;21.20;56.60;;;;;;6293847;22;20380;-92
2022/10/09 03:55:04;;;;;;;1.60;1.47;;;21.30;56.70;;;;;;6293210;22;20473;-92
2022/10/09 03:57:41;;;;;;;2.30;1.37;;;21.20;56.60;;;;;;6293239;22;20511;-94
2022/10/09 04:00:08;;;;;;;1.80;1.33;;;21.20;56.60;;;;;;6293733;22;20785;-93
2022/10/09 04:02:41;;;;;;;1.53;1.43;;;21.20;56.60;;;;;;6295124;22;20357;-93
2022/10/09 04:05:28;;;;;;;;;;;;;;;;;;;;;
2022/10/09 04:07:55;;;;;;;1.97;1.37;;;21.30;56.70;;;;;;6296281;22;20376;-93
2022/10/09 04:10:28;;;;;;;1.33;1.20;;;21.20;56.60;;;;;;6294969;22;20518;-93
2022/10/09 04:13:05;;;;;;;1.73;1.30;;;21.20;56.60;;;;;;6294999;22;20352;-93
2022/10/09 04:15:36;;;;;;;1.60;1.50;;;21.20;56.50;;;;;;6296614;22;20368;-93
2022/10/09 04:18:05;;;;;;;1.90;1.40;;;21.20;56.50;;;;;;6295498;22;20412;-93
2022/10/09 04:20:31;;;;;;;1.80;1.23;;;21.20;56.50;;;;;;6293218;22;20392;-93
2022/10/09 04:22:59;;;;;;;2.23;1.40;;;21.20;56.50;;;;;;6295805;22;20376;-93
2022/10/09 04:25:31;;;;;;;2.53;1.70;;;21.30;56.50;;;;;;6296032;22;20637;-94
2022/10/09 04:28:12;;;;;;;;;;;;;;;;;;;;;
2022/10/09 04:31:26;;;;;;;;;;;;;;;;;;;;;
2022/10/09 04:34:32;;;;;;;1.43;1.30;;;21.20;56.50;;;;;;6294060;22;20637;-93
2022/10/09 04:37:03;;;;;;;1.70;1.27;;;21.20;56.50;;;;;;6292972;22;20473;-94
2022/10/09 04:39:32;;;;;;;1.53;1.30;;;21.20;56.60;;;;;;6292849;22;20365;-94
2022/10/09 04:42:06;;;;;;;3.73;1.40;;;21.20;56.60;;;;;;6292709;22;20383;-93
2022/10/09 04:45:07;;;;;;;2.00;1.80;;;21.20;56.60;;;;;;6293566;22;20372;-93
2022/10/09 04:47:43;;;;;;;2.07;1.47;;;21.20;56.60;;;;;;6292428;22;20437;-93
2022/10/09 04:50:14;;;;;;;1.30;1.10;;;21.20;56.60;;;;;;6292683;22;20379;-93
2022/10/09 04:52:55;;;;;;;;;;;;;;;;;;;;;
2022/10/09 04:55:21;;;;;;;1.30;1.20;;;21.20;56.70;;;;;;6293989;22;20345;-93
2022/10/09 04:57:50;;;;;;;1.77;1.20;;;21.20;56.70;;;;;;6292523;22;20423;-93
2022/10/09 05:00:18;;;;;;;1.40;1.17;;;21.20;56.70;;;;;;6292491;22;20241;-93
2022/10/09 05:02:47;;;;;;;2.40;1.60;;;21.20;56.70;;;;;;6292447;22;20369;-93
2022/10/09 05:05:20;;;;;;;2.00;1.40;;;21.10;56.60;;;;;;6291991;22;20373;-93
2022/10/09 05:07:51;;;;;;;1.63;1.40;;;21.20;56.70;;;;;;6293241;22;20368;-93
2022/10/09 05:10:22;;;;;;;1.80;1.33;;;21.20;56.70;;;;;;6296133;22;20763;-92
2022/10/09 05:12:47;;;;;;;1.60;1.23;;;21.20;56.80;;;;;;6294824;22;20429;-93
2022/10/09 05:15:26;;;;;;;1.40;1.10;;;21.10;56.60;;;;;;6292787;22;20380;-93
2022/10/09 05:18:02;;;;;;;1.57;1.17;;;21.20;56.80;;;;;;6297011;22;20178;-92
2022/10/09 05:20:30;;;;;;;1.37;1.23;;;21.10;56.70;;;;;;6294568;22;20372;-93
2022/10/09 05:23:05;;;;;;;1.90;1.60;;;21.10;56.70;;;;;;6293197;22;20400;-93
2022/10/09 05:25:36;;;;;;;1.67;1.30;;;21.10;56.70;;;;;;6264546;23;20365;-93
2022/10/09 05:28:05;;;;;;;1.83;1.30;;;21.10;56.70;;;;;;6288886;22;20376;-93
2022/10/09 05:30:46;;;;;;;1.57;1.23;;;21.10;56.70;;;;;;6262287;23;20377;-92
2022/10/09 05:33:48;;;;;;;;;;;;;;;;;;;;;
2022/10/09 05:36:35;;;;;;;;;;;;;;;;;;;;;
2022/10/09 05:39:12;;;;;;;;;;;;;;;;;;;;;
2022/10/09 05:41:46;;;;;;;1.53;1.30;;;21.00;56.70;;;;;;6262916;23;20353;-92
2022/10/09 05:44:14;;;;;;;1.47;1.10;;;21.10;56.70;;;;;;6289524;22;20389;-92
2022/10/09 05:46:45;;;;;;;1.57;1.10;;;21.10;56.70;;;;;;6287873;22;20376;-92
2022/10/09 05:49:28;;;;;;;;;;;;;;;;;;;;;
2022/10/09 05:52:03;;;;;;;1.40;1.27;;;21.10;56.70;;;;;;6264857;23;20768;-92
2022/10/09 05:54:34;;;;;;;1.83;1.50;;;21.10;56.70;;;;;;6288347;22;20492;-92
2022/10/09 05:57:04;;;;;;;1.37;1.00;;;21.10;56.60;;;;;;6264721;23;20409;-92
2022/10/09 05:59:40;;;;;;;;;;;;;;;;;;;;;
2022/10/09 06:02:21;;;;;;;;;;;;;;;;;;;;;
2022/10/09 06:05:05;;;;;;;;;;;;;;;;;;;;;
2022/10/09 06:07:41;;;;;;;;;;;;;;;;;;;;;
2022/10/09 06:10:16;;;;;;;2.40;1.30;;;21.10;56.60;;;;;;6262772;23;20752;-92
2022/10/09 06:15:43;;;;;;;;;;;;;;;;;;;;;
2022/10/09 06:18:09;;;;;;;1.60;1.37;;;21.10;56.60;;;;;;6261096;23;20433;-92
2022/10/09 06:20:41;;;;;;;1.87;1.40;;;21.10;56.60;;;;;;6289108;22;20393;-92
2022/10/09 06:23:09;;;;;;;1.17;1.07;;;21.10;57.10;;;;;;6286779;22;20381;-93
2022/10/09 06:25:35;;;;;;;1.50;1.07;;;21.10;56.50;;;;;;6263023;23;20377;-93
2022/10/09 06:28:17;;;;;;;1.40;1.10;;;21.10;56.50;;;;;;6286022;22;20460;-92
2022/10/09 06:30:50;;;;;;;2.80;2.30;;;21.10;56.50;;;;;;6260952;23;20651;-92
2022/10/09 06:33:22;;;;;;;2.23;1.37;;;21.10;56.50;;;;;;6259079;23;20656;-93
2022/10/09 06:35:53;;;;;;;1.60;1.30;;;21.10;56.50;;;;;;6285127;22;20386;-92
2022/10/09 06:38:19;;;;;;;1.20;1.10;;;21.10;56.50;;;;;;6259581;23;20416;-92
2022/10/09 06:40:44;;;;;;;1.30;1.10;;;21.10;56.50;;;;;;6260563;23;20376;-92
2022/10/09 06:43:20;;;;;;;1.10;1.00;;;21.10;56.50;;;;;;6285608;22;20169;-92
2022/10/09 06:45:46;;;;;;;1.40;1.30;;;21.10;56.50;;;;;;6259880;23;20138;-92
2022/10/09 06:48:54;;;;;;;;;;;;;;;;;;;;;
2022/10/09 06:51:46;;;;;;;;;;;;;;;;;;;;;
2022/10/09 06:54:16;;;;;;;1.40;1.30;;;21.10;56.50;;;;;;6261854;23;20397;-92
2022/10/09 06:56:42;;;;;;;1.70;1.13;;;21.10;56.60;;;;;;6262783;22;20460;-93
2022/10/09 06:59:10;;;;;;;1.30;1.20;;;21.10;56.60;;;;;;6284991;22;20380;-90
2022/10/09 07:01:38;;;;;;;1.90;1.30;;;21.10;56.50;;;;;;6263610;22;20373;-91
2022/10/09 07:04:10;;;;;;;1.50;1.40;;;21.10;56.50;;;;;;6286449;22;20426;-92
2022/10/09 07:06:40;;;;;;;2.00;1.70;;;21.20;56.60;;;;;;6262171;22;20376;-93
2022/10/09 07:09:11;;;;;;;1.80;1.53;;;21.10;56.40;;;;;;6263095;23;20385;-93
2022/10/09 07:11:45;;;;;;;4.03;2.40;;;21.10;56.40;;;;;;6261500;23;20857;-92
2022/10/09 07:14:19;;;;;;;3.60;3.13;;;21.10;56.20;;;;;;6263332;23;20812;-90
2022/10/09 07:16:50;;;;;;;2.87;2.40;;;21.10;56.20;;;;;;6262847;23;20423;-91
2022/10/09 07:19:17;;;;;;;2.70;2.20;;;21.10;56.10;;;;;;6264462;22;20350;-90
2022/10/09 07:21:46;;;;;;;4.17;2.33;;;21.10;56.10;;;;;;6260934;23;20391;-89
2022/10/09 07:24:12;;;;;;;4.00;2.63;;;21.10;55.90;;;;;;6260922;23;20377;-90
2022/10/09 07:26:43;;;;;;;2.80;1.90;;;21.10;55.90;;;;;;6287288;22;20800;-89
2022/10/09 07:29:14;;;;;;;2.90;2.50;;;21.10;55.90;;;;;;6261014;23;20394;-90
2022/10/09 07:31:40;;;;;;;3.87;3.50;;;21.10;55.70;;;;;;6262185;22;20445;-89
2022/10/09 07:34:06;;;;;;;2.90;2.60;;;21.00;55.50;;;;;;6262637;22;20362;-89
2022/10/09 07:36:34;;;;;;;3.63;3.30;;;21.00;55.40;;;;;;6261953;22;20167;-89
2022/10/09 07:39:00;;;;;;;3.10;2.80;;;21.00;55.20;;;;;;6261607;23;20162;-90
2022/10/09 07:41:28;;;;;;;2.73;2.33;;;21.00;55.20;;;;;;6264447;23;20418;-90
2022/10/09 07:43:57;;;;;;;5.10;3.37;;;21.00;55.10;;;;;;6265080;22;20365;-90
2022/10/09 07:46:24;;;;;;;4.07;3.00;;;21.00;54.90;;;;;;6261763;23;20379;-90
2022/10/09 07:48:51;;;;;;;3.60;2.90;;;21.00;54.90;;;;;;6263521;23;20377;-88
2022/10/09 07:51:25;;;;;;;8.40;2.90;;;21.00;54.80;;;;;;6265190;23;20381;-89
2022/10/09 07:54:02;;;;;;;3.43;3.13;;;21.00;54.80;;;;;;6260689;23;20369;-90
2022/10/09 07:56:29;;;;;;;3.00;2.57;;;21.00;54.60;;;;;;6289608;22;20444;-90
2022/10/09 07:59:04;;;;;;;3.27;2.57;;;21.00;54.80;;;;;;6264000;23;20465;-90
2022/10/09 08:01:32;;;;;;;3.87;2.90;;;21.00;54.90;;;;;;6261065;23;20377;-90
2022/10/09 08:04:03;;;;;;;2.67;2.47;;;21.00;55.00;;;;;;6261479;23;20370;-90
2022/10/09 08:06:42;;;;;;;;;;;;;;;;;;;;;
2022/10/09 08:09:13;;;;;;;2.73;2.47;;;21.00;55.20;;;;;;6263223;23;20381;-90
2022/10/09 08:11:39;;;;;;;2.30;2.10;;;21.00;55.20;;;;;;6259907;23;20421;-90
2022/10/09 08:14:06;;;;;;;2.87;2.40;;;21.00;55.20;;;;;;6285885;22;20380;-91
2022/10/09 08:16:34;;;;;;;2.80;2.57;;;20.90;55.20;;;;;;6259395;23;20185;-90
2022/10/09 08:19:14;;;;;;;4.90;3.50;;;21.00;55.30;;;;;;6261809;22;20419;-90
2022/10/09 08:21:43;;;;;;;2.70;2.50;;;21.00;55.30;;;;;;6261598;23;20403;-90
2022/10/09 08:24:10;;;;;;;2.70;2.50;;;21.00;55.30;;;;;;6287001;22;20783;-90
2022/10/09 08:26:36;;;;;;;2.90;2.03;;;21.00;55.90;;;;;;6262168;22;20370;-89
2022/10/09 08:29:04;;;;;;;3.10;2.90;;;21.00;55.40;;;;;;6262148;22;20370;-89
2022/10/09 08:31:57;;;;;;;2.97;2.10;;;21.00;55.40;;;;;;6260308;23;20799;-90
2022/10/09 08:34:35;;;;;;;3.37;2.87;;;21.00;55.40;;;;;;6261967;22;20445;-91
2022/10/09 08:37:00;;;;;;;3.10;2.73;;;20.90;55.30;;;;;;6261193;23;20416;-90
2022/10/09 08:39:29;;;;;;;4.43;2.23;;;20.90;55.30;;;;;;6260163;23;20427;-90
2022/10/09 08:42:00;;;;;;;2.57;2.37;;;21.00;55.40;;;;;;6262489;22;20149;-90
